createdAt,value
2018-09-26T00:00:07.133Z,9.10
2018-09-26T00:02:38.662Z,9.10
2018-09-26T00:05:07.150Z,9.00
2018-09-26T00:07:35.192Z,8.90
2018-09-26T00:10:03.256Z,8.90
2018-09-26T00:12:31.345Z,8.90
2018-09-26T00:14:59.408Z,8.80
2018-09-26T00:17:27.482Z,8.80
2018-09-26T00:19:55.544Z,8.80
2018-09-26T00:22:23.639Z,8.90
2018-09-26T00:24:51.661Z,8.80
2018-09-26T00:27:19.721Z,8.80
2018-09-26T00:29:47.750Z,8.80
2018-09-26T00:32:16.229Z,8.80
2018-09-26T00:34:44.253Z,8.80
2018-09-26T00:37:13.206Z,8.80
2018-09-26T00:39:41.258Z,8.80
2018-09-26T00:42:09.318Z,8.70
2018-09-26T00:44:37.350Z,8.70
2018-09-26T00:47:05.547Z,8.70
2018-09-26T00:49:33.561Z,8.70
2018-09-26T00:52:01.592Z,8.60
2018-09-26T00:54:29.625Z,8.60
2018-09-26T00:56:57.685Z,8.60
2018-09-26T00:59:25.725Z,8.60
2018-09-26T01:01:54.010Z,8.60
2018-09-26T01:04:22.042Z,8.60
2018-09-26T01:06:50.088Z,8.60
2018-09-26T01:09:18.125Z,8.60
2018-09-26T01:11:46.189Z,8.60
2018-09-26T01:14:14.241Z,8.50
2018-09-26T01:16:42.329Z,8.50
2018-09-26T01:19:10.421Z,8.50
2018-09-26T01:21:38.452Z,8.50
2018-09-26T01:24:06.537Z,8.40
2018-09-26T01:26:34.595Z,8.40
2018-09-26T01:29:02.646Z,8.40
2018-09-26T01:31:30.681Z,8.40
2018-09-26T01:33:58.806Z,8.50
2018-09-26T01:36:26.848Z,8.50
2018-09-26T01:38:55.097Z,8.40
2018-09-26T01:41:23.151Z,8.40
2018-09-26T01:43:51.207Z,8.30
2018-09-26T01:46:19.269Z,8.30
2018-09-26T01:48:47.438Z,8.20
2018-09-26T01:51:15.529Z,8.20
2018-09-26T01:53:43.653Z,8.20
2018-09-26T01:56:11.825Z,8.30
2018-09-26T01:58:39.993Z,8.20
2018-09-26T02:01:08.057Z,8.20
2018-09-26T02:03:36.186Z,8.20
2018-09-26T02:06:04.221Z,8.20
2018-09-26T02:08:32.281Z,8.20
2018-09-26T02:11:00.358Z,8.20
2018-09-26T02:13:28.418Z,8.20
2018-09-26T02:15:56.442Z,8.10
2018-09-26T02:18:24.522Z,8.00
2018-09-26T02:20:52.556Z,7.90
2018-09-26T02:23:20.610Z,7.90
2018-09-26T02:25:48.918Z,7.80
2018-09-26T02:28:16.932Z,7.90
2018-09-26T02:30:45.038Z,7.90
2018-09-26T02:33:13.070Z,8.00
2018-09-26T02:35:41.177Z,7.90
2018-09-26T02:38:09.239Z,7.90
2018-09-26T02:40:37.349Z,8.00
2018-09-26T02:43:05.630Z,8.10
2018-09-26T02:45:33.685Z,8.10
2018-09-26T02:48:01.710Z,8.20
2018-09-26T02:50:29.746Z,8.30
2018-09-26T02:52:57.779Z,8.40
2018-09-26T02:55:25.862Z,8.40
2018-09-26T02:57:53.946Z,8.40
2018-09-26T03:00:21.986Z,8.40
2018-09-26T03:02:50.057Z,8.20
2018-09-26T03:05:18.141Z,8.30
2018-09-26T03:07:46.175Z,8.30
2018-09-26T03:10:14.292Z,8.30
2018-09-26T03:12:42.371Z,8.30
2018-09-26T03:15:10.419Z,8.20
2018-09-26T03:17:38.548Z,8.20
2018-09-26T03:20:06.715Z,8.20
2018-09-26T03:22:34.749Z,8.40
2018-09-26T03:25:02.837Z,8.30
2018-09-26T03:27:30.887Z,8.20
2018-09-26T03:29:58.925Z,8.10
2018-09-26T03:32:26.959Z,8.10
2018-09-26T03:34:55.012Z,8.10
2018-09-26T03:37:23.086Z,8.10
2018-09-26T03:39:51.165Z,8.20
2018-09-26T03:42:19.215Z,8.20
2018-09-26T03:44:47.313Z,8.30
2018-09-26T03:47:15.344Z,8.30
2018-09-26T03:49:43.410Z,8.30
2018-09-26T03:52:11.441Z,8.20
2018-09-26T03:54:39.715Z,8.00
2018-09-26T03:57:07.752Z,8.10
2018-09-26T03:59:35.861Z,8.10
2018-09-26T04:02:04.150Z,8.00
2018-09-26T04:04:32.201Z,7.90
2018-09-26T04:07:00.533Z,7.90
2018-09-26T04:09:28.595Z,7.80
2018-09-26T04:11:56.719Z,7.80
2018-09-26T04:14:24.798Z,7.70
2018-09-26T04:16:52.860Z,7.60
2018-09-26T04:19:20.896Z,7.60
2018-09-26T04:24:34.342Z,7.40
2018-09-26T04:27:02.590Z,7.30
2018-09-26T04:29:30.424Z,7.40
2018-09-26T04:31:58.535Z,7.50
2018-09-26T04:34:26.679Z,7.40
2018-09-26T04:36:54.811Z,7.40
2018-09-26T04:39:22.865Z,7.40
2018-09-26T04:41:51.025Z,7.50
2018-09-26T04:44:19.071Z,7.50
2018-09-26T04:46:47.150Z,7.40
2018-09-26T04:49:15.257Z,7.30
2018-09-26T04:51:43.391Z,7.20
2018-09-26T04:54:11.488Z,7.20
2018-09-26T04:56:39.633Z,7.10
2018-09-26T04:59:07.704Z,7.10
2018-09-26T05:01:35.780Z,7.00
2018-09-26T05:04:03.829Z,6.90
2018-09-26T05:06:31.889Z,6.90
2018-09-26T05:08:59.949Z,6.90
2018-09-26T05:11:28.071Z,6.80
2018-09-26T05:13:56.221Z,6.80
2018-09-26T05:16:24.268Z,6.80
2018-09-26T05:18:52.398Z,6.70
2018-09-26T05:21:20.462Z,6.70
2018-09-26T05:23:48.518Z,6.70
2018-09-26T05:26:16.573Z,6.70
2018-09-26T05:28:44.635Z,6.70
2018-09-26T05:31:12.739Z,6.70
2018-09-26T05:33:40.853Z,6.80
2018-09-26T05:36:08.906Z,6.80
2018-09-26T05:38:37.267Z,6.80
2018-09-26T05:41:05.399Z,6.90
2018-09-26T05:43:33.606Z,6.90
2018-09-26T05:46:01.815Z,7.00
2018-09-26T05:48:29.960Z,7.00
2018-09-26T05:50:58.206Z,7.00
2018-09-26T05:53:26.377Z,7.10
2018-09-26T05:55:54.474Z,7.20
2018-09-26T05:58:22.600Z,7.20
2018-09-26T06:00:50.784Z,7.30
2018-09-26T06:03:19.014Z,7.30
2018-09-26T06:05:47.099Z,7.40
2018-09-26T06:08:15.165Z,7.60
2018-09-26T06:10:43.290Z,7.60
2018-09-26T06:13:11.419Z,7.70
2018-09-26T06:15:39.529Z,7.80
2018-09-26T06:18:07.705Z,7.80
2018-09-26T06:20:35.852Z,7.90
2018-09-26T06:23:03.954Z,8.00
2018-09-26T06:25:32.357Z,8.10
2018-09-26T06:28:00.605Z,8.10
2018-09-26T06:30:28.674Z,8.20
2018-09-26T06:32:56.776Z,8.30
2018-09-26T06:35:24.901Z,8.40
2018-09-26T06:37:53.092Z,8.50
2018-09-26T06:40:21.251Z,8.60
2018-09-26T06:42:49.285Z,8.70
2018-09-26T06:45:17.362Z,8.60
2018-09-26T06:47:45.508Z,8.70
2018-09-26T06:50:13.668Z,8.70
2018-09-26T06:52:41.729Z,8.70
2018-09-26T06:55:09.892Z,8.80
2018-09-26T06:57:37.984Z,8.90
2018-09-26T07:00:06.409Z,8.80
2018-09-26T07:02:34.540Z,8.90
2018-09-26T07:05:02.594Z,9.00
2018-09-26T07:07:30.662Z,8.90
2018-09-26T07:09:58.707Z,9.00
2018-09-26T07:12:26.761Z,9.00
2018-09-26T07:14:54.807Z,9.10
2018-09-26T07:17:22.860Z,9.10
2018-09-26T07:19:50.922Z,9.10
2018-09-26T07:22:19.044Z,9.10
2018-09-26T07:24:47.070Z,9.30
2018-09-26T07:27:15.142Z,9.30
2018-09-26T07:29:43.193Z,9.40
2018-09-26T07:32:11.347Z,9.50
2018-09-26T07:34:40.037Z,9.60
2018-09-26T07:37:08.635Z,9.70
2018-09-26T07:39:37.629Z,9.80
2018-09-26T07:42:05.707Z,9.90
2018-09-26T07:44:33.882Z,10.00
2018-09-26T07:47:02.057Z,10.10
2018-09-26T07:49:30.203Z,10.20
2018-09-26T07:51:58.253Z,10.30
2018-09-26T07:54:26.352Z,10.40
2018-09-26T07:56:54.424Z,10.40
2018-09-26T07:59:22.486Z,10.50
2018-09-26T08:01:50.545Z,10.60
2018-09-26T08:04:18.639Z,10.80
2018-09-26T08:06:46.708Z,11.00
2018-09-26T08:09:14.785Z,11.10
2018-09-26T08:11:42.884Z,11.10
2018-09-26T08:14:10.917Z,11.10
2018-09-26T08:16:38.964Z,11.00
2018-09-26T08:19:07.060Z,11.10
2018-09-26T08:21:35.167Z,11.10
2018-09-26T08:24:03.457Z,11.10
2018-09-26T08:26:31.411Z,11.20
2018-09-26T08:28:59.545Z,11.30
2018-09-26T08:31:27.721Z,11.40
2018-09-26T08:33:55.807Z,11.40
2018-09-26T08:36:23.898Z,11.60
2018-09-26T08:38:51.968Z,11.60
2018-09-26T08:41:20.055Z,11.80
2018-09-26T08:43:48.105Z,12.20
2018-09-26T08:46:16.136Z,12.40
2018-09-26T08:48:44.197Z,12.60
2018-09-26T08:51:12.313Z,12.90
2018-09-26T08:53:40.437Z,13.10
2018-09-26T08:56:08.458Z,13.20
2018-09-26T08:58:36.535Z,13.50
2018-09-26T09:01:08.926Z,13.30
2018-09-26T09:03:36.993Z,13.30
2018-09-26T09:06:05.077Z,13.40
2018-09-26T09:08:33.107Z,13.40
2018-09-26T09:11:01.151Z,13.50
2018-09-26T09:13:33.425Z,13.50
2018-09-26T09:16:01.534Z,13.60
2018-09-26T09:18:29.606Z,13.70
2018-09-26T09:20:57.718Z,13.70
2018-09-26T09:23:25.741Z,13.80
2018-09-26T09:25:53.805Z,13.90
2018-09-26T09:28:21.868Z,13.90
2018-09-26T09:30:49.909Z,13.90
2018-09-26T09:33:17.981Z,13.90
2018-09-26T09:35:46.333Z,13.90
2018-09-26T09:38:14.422Z,14.00
2018-09-26T09:40:42.455Z,14.00
2018-09-26T09:43:10.509Z,14.30
2018-09-26T09:45:38.578Z,14.40
2018-09-26T09:48:06.698Z,14.50
2018-09-26T09:50:34.744Z,14.60
2018-09-26T09:53:02.819Z,14.70
2018-09-26T09:55:30.897Z,14.70
2018-09-26T09:57:58.941Z,14.80
2018-09-26T10:00:32.528Z,14.80
2018-09-26T10:03:00.810Z,14.80
2018-09-26T10:05:28.774Z,14.90
2018-09-26T10:07:56.824Z,14.80
2018-09-26T10:10:25.509Z,15.00
2018-09-26T10:12:53.554Z,15.10
2018-09-26T10:15:21.627Z,15.40
2018-09-26T10:17:49.702Z,15.50
2018-09-26T10:20:17.960Z,15.60
2018-09-26T10:22:45.865Z,15.60
2018-09-26T10:25:13.936Z,15.60
2018-09-26T10:27:41.985Z,15.70
2018-09-26T10:30:10.074Z,15.70
2018-09-26T10:32:38.109Z,15.90
2018-09-26T10:35:06.391Z,16.10
2018-09-26T10:37:34.486Z,16.10
2018-09-26T10:40:02.562Z,16.30
2018-09-26T10:42:31.910Z,16.50
2018-09-26T10:45:00.082Z,16.60
2018-09-26T10:47:28.139Z,16.60
2018-09-26T10:49:56.337Z,16.60
2018-09-26T10:52:24.390Z,16.70
2018-09-26T10:54:52.454Z,16.70
2018-09-26T10:57:20.501Z,16.70
2018-09-26T10:59:48.565Z,16.60
2018-09-26T11:02:16.664Z,16.40
2018-09-26T11:04:44.706Z,16.30
2018-09-26T11:07:12.790Z,16.40
2018-09-26T11:09:40.864Z,16.50
2018-09-26T11:12:08.913Z,16.50
2018-09-26T11:14:36.977Z,16.40
2018-09-26T11:17:05.062Z,16.50
2018-09-26T11:19:33.138Z,16.40
2018-09-26T11:22:01.193Z,16.30
2018-09-26T11:24:29.393Z,16.30
2018-09-26T11:26:57.448Z,16.40
2018-09-26T11:29:25.510Z,16.30
2018-09-26T11:31:53.550Z,16.50
2018-09-26T11:34:21.648Z,16.60
2018-09-26T11:36:49.689Z,16.50
2018-09-26T11:39:17.859Z,16.60
2018-09-26T11:41:45.883Z,16.80
2018-09-26T11:44:13.995Z,17.00
2018-09-26T11:46:42.006Z,17.10
2018-09-26T11:49:10.097Z,17.30
2018-09-26T11:51:38.190Z,17.20
2018-09-26T11:54:06.242Z,17.30
2018-09-26T11:56:34.343Z,17.30
2018-09-26T11:59:02.391Z,17.30
2018-09-26T12:01:30.449Z,17.50
2018-09-26T12:03:58.505Z,17.80
2018-09-26T12:06:26.572Z,18.10
2018-09-26T12:08:54.621Z,18.30
2018-09-26T12:11:22.705Z,18.20
2018-09-26T12:13:50.836Z,18.30
2018-09-26T12:16:18.892Z,18.20
2018-09-26T12:18:47.117Z,18.20
2018-09-26T12:21:15.242Z,17.90
2018-09-26T12:23:43.339Z,18.00
2018-09-26T12:26:11.446Z,18.20
2018-09-26T12:28:39.695Z,18.40
2018-09-26T12:31:07.907Z,18.60
2018-09-26T12:33:35.965Z,18.40
2018-09-26T12:36:04.206Z,18.40
2018-09-26T12:38:32.212Z,18.30
2018-09-26T12:41:00.253Z,18.20
2018-09-26T12:43:28.325Z,18.30
2018-09-26T12:45:56.420Z,18.40
2018-09-26T12:48:24.615Z,18.30
2018-09-26T12:50:52.605Z,18.40
2018-09-26T12:53:20.685Z,18.60
2018-09-26T12:55:48.758Z,18.60
2018-09-26T12:58:16.889Z,18.50
2018-09-26T13:00:44.998Z,18.60
2018-09-26T13:03:13.004Z,18.50
2018-09-26T13:05:41.133Z,18.40
2018-09-26T13:08:09.319Z,18.50
2018-09-26T13:10:37.465Z,18.60
2018-09-26T13:13:05.536Z,18.80
2018-09-26T13:15:33.577Z,18.80
2018-09-26T13:18:01.648Z,18.90
2018-09-26T13:20:30.125Z,18.80
2018-09-26T13:22:58.177Z,18.70
2018-09-26T13:25:26.306Z,18.80
2018-09-26T13:27:54.357Z,19.00
2018-09-26T13:30:22.439Z,19.00
2018-09-26T13:32:50.461Z,19.20
2018-09-26T13:35:18.533Z,19.20
2018-09-26T13:37:46.642Z,19.30
2018-09-26T13:40:14.911Z,19.40
2018-09-26T13:42:42.959Z,19.40
2018-09-26T13:45:17.926Z,19.70
2018-09-26T13:47:45.996Z,20.10
2018-09-26T13:50:14.095Z,20.70
2018-09-26T13:52:42.113Z,21.80
2018-09-26T13:55:10.283Z,22.40
2018-09-26T13:57:38.383Z,22.00
2018-09-26T14:00:06.578Z,21.70
2018-09-26T14:02:34.585Z,21.30
2018-09-26T14:05:02.702Z,21.00
2018-09-26T14:07:30.763Z,20.80
2018-09-26T14:09:58.825Z,20.50
2018-09-26T14:12:26.969Z,20.30
2018-09-26T14:14:55.006Z,20.20
2018-09-26T14:17:23.304Z,19.80
2018-09-26T14:20:02.745Z,19.60
2018-09-26T14:22:31.063Z,19.50
2018-09-26T14:24:59.236Z,19.60
2018-09-26T14:27:27.512Z,20.10
2018-09-26T14:29:56.342Z,20.70
2018-09-26T14:32:24.665Z,21.40
2018-09-26T14:34:52.854Z,22.50
2018-09-26T14:37:21.151Z,22.40
2018-09-26T14:39:49.550Z,22.80
2018-09-26T14:42:17.728Z,23.70
2018-09-26T14:44:45.984Z,24.90
2018-09-26T14:47:14.272Z,25.40
2018-09-26T14:49:42.469Z,25.10
2018-09-26T14:52:10.729Z,24.60
2018-09-26T14:54:38.965Z,25.10
2018-09-26T14:57:06.980Z,24.80
2018-09-26T14:59:35.217Z,24.60
2018-09-26T15:02:03.557Z,24.30
2018-09-26T15:04:32.281Z,23.50
2018-09-26T15:07:00.725Z,23.30
2018-09-26T15:09:28.965Z,22.90
2018-09-26T15:11:57.295Z,22.70
2018-09-26T15:14:25.644Z,21.90
2018-09-26T15:16:53.934Z,22.10
2018-09-26T15:19:22.161Z,21.60
2018-09-26T15:21:50.433Z,21.10
2018-09-26T15:24:18.702Z,20.80
2018-09-26T15:26:46.942Z,20.00
2018-09-26T15:29:15.186Z,20.00
2018-09-26T15:31:43.456Z,19.80
2018-09-26T15:36:46.510Z,19.50
2018-09-26T15:39:14.757Z,19.10
2018-09-26T15:41:43.040Z,18.90
2018-09-26T15:44:11.322Z,18.60
2018-09-26T15:46:39.550Z,18.60
2018-09-26T15:49:07.849Z,18.50
2018-09-26T15:51:36.430Z,18.50
2018-09-26T15:54:04.756Z,18.40
2018-09-26T15:56:32.969Z,18.30
2018-09-26T15:59:01.525Z,18.10
2018-09-26T16:01:30.117Z,18.10
2018-09-26T16:04:09.507Z,18.10
2018-09-26T16:06:37.523Z,18.10
2018-09-26T16:09:05.632Z,18.00
2018-09-26T16:11:33.701Z,17.90
2018-09-26T16:14:01.834Z,17.90
2018-09-26T16:16:29.997Z,17.80
2018-09-26T16:18:58.186Z,17.80
2018-09-26T16:21:26.325Z,18.00
2018-09-26T16:23:54.519Z,18.10
2018-09-26T16:26:23.579Z,18.10
2018-09-26T16:28:53.164Z,18.20
2018-09-26T16:31:21.263Z,18.60
2018-09-26T16:33:54.602Z,19.40
2018-09-26T16:36:25.404Z,20.00
2018-09-26T16:38:54.813Z,20.20
2018-09-26T16:41:24.865Z,20.00
2018-09-26T16:43:55.762Z,19.70
2018-09-26T16:46:23.917Z,19.30
2018-09-26T16:48:52.725Z,19.00
2018-09-26T16:51:23.065Z,18.60
2018-09-26T16:53:52.864Z,18.20
2018-09-26T16:56:21.523Z,17.90
2018-09-26T16:58:49.974Z,17.70
2018-09-26T17:01:18.372Z,17.50
2018-09-26T17:03:47.950Z,17.30
2018-09-26T17:06:17.414Z,17.10
2018-09-26T17:08:49.165Z,16.90
2018-09-26T17:11:19.073Z,16.70
2018-09-26T17:13:48.029Z,16.60
2018-09-26T17:16:17.142Z,16.60
2018-09-26T17:18:45.150Z,16.50
2018-09-26T17:21:13.881Z,16.50
2018-09-26T17:23:43.911Z,16.40
2018-09-26T17:26:11.984Z,16.40
2018-09-26T17:28:40.110Z,16.30
2018-09-26T17:31:08.114Z,16.30
2018-09-26T17:33:36.405Z,16.30
2018-09-26T17:36:04.565Z,16.30
2018-09-26T17:38:32.701Z,16.30
2018-09-26T17:41:00.851Z,16.40
2018-09-26T17:43:28.962Z,16.40
2018-09-26T17:45:57.003Z,16.30
2018-09-26T17:48:25.150Z,16.30
2018-09-26T17:50:53.105Z,16.30
2018-09-26T17:53:21.189Z,16.30
2018-09-26T17:55:49.228Z,16.30
2018-09-26T17:58:17.405Z,16.30
2018-09-26T18:00:45.447Z,16.30
2018-09-26T18:03:13.559Z,16.30
2018-09-26T18:05:41.612Z,16.30
2018-09-26T18:08:09.702Z,16.30
2018-09-26T18:10:37.773Z,16.30
2018-09-26T18:13:05.944Z,16.30
2018-09-26T18:15:34.046Z,16.20
2018-09-26T18:18:02.150Z,16.30
2018-09-26T18:20:30.251Z,16.20
2018-09-26T18:22:58.400Z,16.20
2018-09-26T18:25:26.486Z,16.20
2018-09-26T18:27:54.675Z,16.20
2018-09-26T18:30:22.623Z,16.20
2018-09-26T18:32:50.694Z,16.20
2018-09-26T18:35:18.806Z,16.20
2018-09-26T18:37:46.993Z,16.20
2018-09-26T18:40:15.115Z,16.20
2018-09-26T18:42:43.244Z,16.20
2018-09-26T18:45:11.334Z,16.20
2018-09-26T18:47:39.462Z,16.20
2018-09-26T18:50:07.581Z,16.20
2018-09-26T18:52:35.620Z,16.20
2018-09-26T18:55:03.722Z,16.20
2018-09-26T18:57:31.796Z,16.20
2018-09-26T18:59:59.942Z,16.20
2018-09-26T19:02:28.022Z,16.20
2018-09-26T19:04:56.226Z,16.20
2018-09-26T19:07:24.221Z,16.20
2018-09-26T19:09:52.299Z,16.20
2018-09-26T19:12:20.328Z,16.20
2018-09-26T19:14:48.409Z,16.20
2018-09-26T19:17:16.469Z,16.20
2018-09-26T19:19:44.545Z,16.20
2018-09-26T19:22:12.747Z,16.20
2018-09-26T19:24:40.848Z,16.20
2018-09-26T19:27:08.962Z,16.20
2018-09-26T19:29:37.041Z,16.20
2018-09-26T19:32:05.080Z,16.20
2018-09-26T19:34:33.237Z,16.20
2018-09-26T19:37:07.966Z,16.20
2018-09-26T19:39:36.065Z,16.20
2018-09-26T19:42:04.167Z,16.20
2018-09-26T19:44:32.239Z,16.10
2018-09-26T19:47:00.285Z,16.10
2018-09-26T19:49:29.301Z,16.10
2018-09-26T19:51:57.896Z,16.10
2018-09-26T19:54:31.188Z,16.10
2018-09-26T19:56:59.757Z,16.00
2018-09-26T19:59:27.943Z,16.00
2018-09-26T20:01:56.114Z,16.00
2018-09-26T20:04:24.516Z,16.10
2018-09-26T20:06:53.102Z,16.00
2018-09-26T20:09:21.199Z,16.00
2018-09-26T20:11:49.354Z,16.00
2018-09-26T20:14:17.645Z,16.00
2018-09-26T20:16:45.845Z,16.00
2018-09-26T20:19:14.217Z,16.00
2018-09-26T20:21:42.240Z,16.00
2018-09-26T20:24:10.346Z,16.00
2018-09-26T20:26:38.507Z,16.00
2018-09-26T20:29:06.596Z,16.00
2018-09-26T20:31:35.153Z,16.00
2018-09-26T20:34:03.369Z,16.00
2018-09-26T20:36:31.429Z,16.00
2018-09-26T20:38:59.511Z,16.00
2018-09-26T20:41:27.852Z,16.10
2018-09-26T20:43:56.017Z,16.10
2018-09-26T20:46:24.188Z,16.10
2018-09-26T20:48:52.385Z,16.00
2018-09-26T20:51:20.627Z,16.10
2018-09-26T20:53:48.641Z,16.10
2018-09-26T20:56:16.741Z,16.10
2018-09-26T20:58:44.843Z,16.10
2018-09-26T21:01:12.946Z,16.10
2018-09-26T21:03:40.985Z,16.00
2018-09-26T21:06:09.062Z,16.10
2018-09-26T21:08:37.090Z,16.00
2018-09-26T21:11:05.705Z,16.00
2018-09-26T21:13:33.772Z,15.90
2018-09-26T21:16:01.891Z,15.90
2018-09-26T21:18:29.933Z,15.80
2018-09-26T21:20:58.101Z,15.80
2018-09-26T21:23:26.222Z,15.70
2018-09-26T21:25:54.344Z,15.70
2018-09-26T21:28:22.540Z,15.80
2018-09-26T21:30:51.075Z,15.70
2018-09-26T21:33:19.358Z,15.70
2018-09-26T21:35:47.571Z,15.70
2018-09-26T21:38:15.611Z,15.70
2018-09-26T21:40:43.765Z,15.70
2018-09-26T21:43:11.806Z,15.70
2018-09-26T21:45:39.895Z,15.60
2018-09-26T21:48:07.944Z,15.60
2018-09-26T21:50:36.115Z,15.60
2018-09-26T21:53:04.161Z,15.60
2018-09-26T21:55:32.356Z,15.60
2018-09-26T21:58:00.425Z,15.70
2018-09-26T22:00:28.494Z,15.60
2018-09-26T22:02:56.688Z,15.60
2018-09-26T22:05:24.899Z,15.70
2018-09-26T22:07:52.961Z,15.70
2018-09-26T22:10:21.084Z,15.70
2018-09-26T22:12:49.125Z,15.70
2018-09-26T22:15:23.043Z,15.60
2018-09-26T22:17:51.677Z,15.70
2018-09-26T22:20:19.884Z,15.60
2018-09-26T22:22:48.433Z,15.60
2018-09-26T22:25:16.645Z,15.70
2018-09-26T22:27:45.704Z,15.70
2018-09-26T22:30:13.749Z,15.70
2018-09-26T22:32:42.629Z,15.70
2018-09-26T22:35:10.685Z,15.70
2018-09-26T22:37:38.789Z,15.70
2018-09-26T22:40:06.827Z,15.70
2018-09-26T22:42:34.920Z,15.70
2018-09-26T22:45:02.983Z,15.70
2018-09-26T22:47:31.058Z,15.70
2018-09-26T22:49:59.146Z,15.70
2018-09-26T22:52:27.223Z,15.80
2018-09-26T22:54:55.272Z,15.70
2018-09-26T22:57:23.375Z,15.70
2018-09-26T22:59:51.467Z,15.70
2018-09-26T23:02:19.517Z,15.80
2018-09-26T23:04:47.568Z,15.80
2018-09-26T23:07:15.768Z,15.70
2018-09-26T23:09:43.841Z,15.70
2018-09-26T23:12:12.022Z,15.60
2018-09-26T23:14:40.082Z,15.60
2018-09-26T23:17:08.186Z,15.60
2018-09-26T23:19:36.264Z,15.50
2018-09-26T23:22:04.345Z,15.50
2018-09-26T23:24:32.406Z,15.50
2018-09-26T23:27:00.541Z,15.50
2018-09-26T23:29:28.622Z,15.60
2018-09-26T23:31:56.852Z,15.60
2018-09-26T23:34:24.977Z,15.60
2018-09-26T23:36:53.172Z,15.60
2018-09-26T23:39:21.218Z,15.60
2018-09-26T23:41:49.276Z,15.60
2018-09-26T23:44:17.329Z,15.60
2018-09-26T23:46:45.431Z,15.60
2018-09-26T23:49:13.474Z,15.60
2018-09-26T23:51:41.707Z,15.60
2018-09-26T23:54:09.793Z,15.50
2018-09-26T23:56:37.947Z,15.60
2018-09-26T23:59:06.016Z,15.50
